Terminal Aerodrome Forecast
Issued by NWS Tampa Bay Area, FL

Current Version | Previous Version | Text Only | Print | Product List | Glossary On
Versions: 1 2 3 4 5 6 7 8 9 10 11 12 13 14 15 16 17 18 19 20 21 22 23
858
FTUS42 KTBW 302056 AAA
TAFTPA
TAF AMD
KTPA 302056Z 3021/3118 20011G17KT P6SM FEW050 SCT250
     FM310000 19008KT P6SM SCT250
     FM310300 18006KT P6SM BKN250
     FM311200 18009KT P6SM VCSH SCT015 BKN050
     FM311500 20013G23KT P6SM VCSH SCT035 BKN050=

USA.gov is the U.S. government's official web portal to all federal, state and local government web resources and services.